Time;durP1;ratioP1;P1;durP2;ratioP2;P2;SDS_P1;SDS_P2;PMS_P1;PMS_P2;Temp;Humidity;BMP_temperature;BMP_pressure;BME280_temperature;BME280_humidity;BME280_pressure;Samples;Min_cycle;Max_cycle;Signal;HPM_P1;HPM_P2
2022/01/30 00:00:31;;;;;;;35.72;4.68;;;;;;;4.77;86.97;99693.25;4962576;28;20046;-86
2022/01/30 00:03:04;;;;;;;26.60;4.40;;;;;;;4.74;86.73;99680.34;4948350;28;20092;-85
2022/01/30 00:05:30;;;;;;;40.97;6.60;;;6.40;99.90;;;4.78;87.25;99675.88;4944752;28;20037;-87
2022/01/30 00:07:57;;;;;;;28.38;4.18;;;6.40;99.90;;;4.83;86.57;99677.38;4982843;23;20046;-88
2022/01/30 00:14:05;;;;;;;;;;;6.40;99.90;;;4.82;86.40;99693.09;4943970;28;20196;-84
2022/01/30 00:16:41;;;;;;;38.90;5.97;;;;;;;4.84;86.70;99639.13;4927574;28;19924;-86
2022/01/30 00:21:58;;;;;;;25.88;5.28;;;;;;;4.74;86.57;99651.66;4923554;28;20156;-88
2022/01/30 00:27:27;;;;;;;31.90;5.00;;;6.40;99.90;;;4.79;85.57;99686.22;4825589;23;20044;-84
2022/01/30 00:30:01;;;;;;;26.75;4.55;;;;;;;4.78;85.16;99618.50;4921258;28;20659;-84
2022/01/30 00:32:28;;;;;;;27.38;5.13;;;6.40;99.90;;;4.84;84.82;99654.78;4900350;28;20101;-86
2022/01/30 00:34:54;;;;;;;31.20;5.53;;;6.40;99.90;;;4.83;84.28;99692.19;4849014;28;20487;-82
2022/01/30 00:37:29;;;;;;;36.75;6.20;;;6.40;99.90;;;4.90;84.67;99683.19;4889154;28;20062;-86
2022/01/30 00:40:09;;;;;;;41.42;7.22;;;;;;;4.84;84.65;99652.16;4881051;28;20046;-86
2022/01/30 00:42:35;;;;;;;37.40;6.47;;;;;;;4.76;84.90;99626.38;4875718;28;20063;-87
2022/01/30 00:45:02;;;;;;;31.92;5.22;;;6.40;99.90;;;4.83;84.83;99677.38;4814913;28;20111;-83
2022/01/30 00:47:37;;;;;;;25.90;4.18;;;6.40;99.90;;;4.85;83.79;99669.50;4914768;23;20404;-85
2022/01/30 00:50:05;;;;;;;22.65;5.00;;;6.40;99.90;;;4.84;83.42;99616.47;4961060;28;20060;-84
2022/01/30 00:52:39;;;;;;;36.72;5.03;;;6.40;99.90;;;4.83;83.45;99648.69;4891376;28;20353;-84
2022/01/30 00:55:06;;;;;;;27.50;6.38;;;6.40;99.90;;;4.82;82.01;99640.94;4909129;28;20097;-84
2022/01/30 00:57:32;;;;;;;21.67;3.58;;;6.40;99.90;;;4.83;81.34;99637.41;4899319;28;20157;-85
2022/01/30 00:59:58;;;;;;;42.08;6.45;;;6.40;99.90;;;4.81;81.55;99629.63;4896364;28;20073;-83
2022/01/30 01:02:33;;;;;;;29.48;4.93;;;6.30;99.90;;;4.68;81.15;99634.50;4874975;28;20034;-84
2022/01/30 01:05:04;;;;;;;24.95;5.80;;;6.30;99.90;;;4.68;81.24;99676.22;4901604;28;20031;-84
2022/01/30 01:07:40;;;;;;;28.75;5.25;;;6.30;99.90;;;4.59;81.67;99634.84;4926919;23;20432;-84
2022/01/30 01:24:02;;;;;;;27.50;5.00;;;6.20;99.90;;;4.64;81.93;99626.84;4910295;28;20038;-84
2022/01/30 01:26:36;;;;;;;40.10;6.30;;;6.20;99.90;;;4.65;80.97;99564.22;4896752;28;20030;-83
2022/01/30 01:29:09;;;;;;;26.90;5.22;;;6.20;99.90;;;4.64;81.24;99619.03;4915710;23;20050;-84
2022/01/30 01:31:35;;;;;;;40.53;7.03;;;;;;;4.64;81.16;99639.88;4883990;28;20065;-84
2022/01/30 01:34:18;;;;;;;28.38;5.00;;;6.20;99.90;;;4.67;81.41;99635.41;4927532;28;20032;-83
2022/01/30 01:36:44;;;;;;;50.05;7.85;;;;;;;4.73;81.07;99644.75;4908601;28;20069;-85
2022/01/30 01:39:19;;;;;;;50.58;6.43;;;;;;;4.78;80.27;99647.19;4911627;28;20474;-82
2022/01/30 01:41:45;;;;;;;31.90;5.60;;;6.30;99.90;;;4.73;80.80;99637.78;4909036;28;20036;-84
2022/01/30 01:44:33;;;;;;;40.75;6.13;;;;;;;4.70;81.09;99630.06;4892574;28;20485;-84
2022/01/30 01:49:30;;;;;;;34.78;5.82;;;6.30;99.90;;;4.72;81.43;99664.75;4959040;23;20578;-86
2022/01/30 01:52:18;;;;;;;33.80;5.63;;;;;;;4.72;81.42;99661.31;4896283;28;20478;-86
2022/01/30 01:54:52;;;;;;;26.65;4.32;;;;;;;4.74;82.12;99672.53;4924876;28;20486;-83
2022/01/30 01:57:28;;;;;;;18.63;4.82;;;6.30;99.90;;;4.75;82.37;99687.25;4901259;28;20104;-84
2022/01/30 01:59:59;;;;;;;29.70;5.95;;;6.30;99.90;;;4.72;82.55;99638.69;4845353;28;20714;-86
2022/01/30 02:02:32;;;;;;;44.70;4.80;;;6.30;99.90;;;4.67;82.59;99653.66;4905078;28;20038;-82
2022/01/30 02:05:02;;;;;;;25.17;5.35;;;6.30;99.90;;;4.67;82.45;99656.28;4869559;28;20031;-85
2022/01/30 02:10:17;;;;;;;23.52;5.07;;;6.30;99.90;;;4.71;82.71;99651.78;4902493;28;20038;-84
2022/01/30 02:12:49;;;;;;;36.65;5.50;;;;;;;4.75;82.27;99642.91;4878466;28;20077;-86
2022/01/30 02:26:18;;;;;;;33.47;6.57;;;;;;;4.69;83.09;99637.97;4918031;28;20121;-85
2022/01/30 02:28:44;;;;;;;37.80;5.63;;;6.30;99.90;;;4.73;82.91;99623.91;4909395;28;20494;-84
2022/01/30 02:31:14;;;;;;;32.42;5.07;;;6.30;99.90;;;4.69;83.42;99656.22;4886555;28;20058;-84
2022/01/30 02:33:44;;;;;;;28.67;4.65;;;6.30;99.90;;;4.68;83.99;99642.31;4870349;28;20073;-83
2022/01/30 02:36:10;;;;;;;34.35;5.55;;;6.20;99.90;;;4.60;85.18;99654.81;4893059;28;21424;-84
2022/01/30 02:38:37;;;;;;;39.75;5.38;;;;;;;4.49;86.01;99641.34;4844094;28;20042;-85
2022/01/30 02:41:14;;;;;;;38.15;5.32;;;6.10;99.90;;;4.54;86.12;99644.63;4891532;28;20038;-84
2022/01/30 02:43:53;;;;;;;39.15;6.53;;;6.10;99.90;;;4.49;86.52;99607.44;4891665;28;20022;-85
2022/01/30 02:46:42;;;;;;;28.55;5.25;;;;;;;4.51;86.19;99632.56;4951712;28;20034;-83
2022/01/30 02:51:58;;;;;;;39.67;5.53;;;6.10;99.90;;;4.50;87.48;99612.59;4877878;28;20039;-83
2022/01/30 02:54:31;;;;;;;30.05;5.45;;;6.10;99.90;;;4.41;89.03;99617.34;4855983;28;20031;-84
2022/01/30 02:56:58;;;;;;;30.35;4.80;;;;;;;4.40;89.33;99641.69;4896107;28;20140;-81
2022/01/30 02:59:26;;;;;;;55.58;6.07;;;6.00;99.90;;;4.46;89.08;99620.63;4887577;28;20050;-82
2022/01/30 03:02:01;;;;;;;38.30;5.25;;;6.00;99.90;;;4.42;90.19;99612.06;4857895;28;20158;-84
2022/01/30 03:04:27;;;;;;;45.15;7.28;;;6.00;99.90;;;4.36;89.87;99588.84;4887658;28;20459;-84
2022/01/30 03:06:53;;;;;;;51.15;5.85;;;6.00;99.90;;;4.38;90.92;99620.06;4856740;28;20075;-83
2022/01/30 03:09:43;;;;;;;57.28;7.90;;;5.90;99.90;;;4.31;91.61;99606.41;4900673;28;20031;-83
2022/01/30 03:12:10;;;;;;;56.47;9.07;;;5.90;99.90;;;4.23;92.72;99554.63;4884953;28;20400;-83
2022/01/30 03:14:36;;;;;;;36.85;6.10;;;5.90;99.90;;;4.20;93.35;99595.56;4850887;28;20473;-83
2022/01/30 03:17:02;;;;;;;44.05;7.18;;;5.80;99.90;;;4.23;93.78;99585.00;4870009;28;20039;-84
2022/01/30 03:19:37;;;;;;;35.28;6.85;;;5.80;99.90;;;4.22;94.26;99585.94;4887893;28;20061;-83
2022/01/30 03:22:03;;;;;;;48.97;7.35;;;5.80;99.90;;;4.18;95.28;99594.78;4887902;28;20139;-82
2022/01/30 03:24:35;;;;;;;38.20;6.95;;;5.80;99.90;;;4.17;95.38;99583.50;4869163;28;20054;-83
2022/01/30 03:27:02;;;;;;;54.47;7.68;;;;;;;4.18;95.33;99589.56;4866448;28;20044;-83
2022/01/30 03:29:28;;;;;;;50.92;8.35;;;5.80;99.90;;;4.13;95.60;99594.13;4905962;28;20034;-84
2022/01/30 03:31:54;;;;;;;46.13;7.85;;;5.70;99.90;;;4.04;96.63;99584.88;4882365;28;20031;-82
2022/01/30 03:34:20;;;;;;;38.20;6.53;;;5.70;99.90;;;4.04;97.15;99582.25;4883501;28;20045;-83
2022/01/30 03:36:46;;;;;;;35.40;5.57;;;5.70;99.90;;;4.04;97.88;99570.09;4893257;28;20022;-83
2022/01/30 03:39:19;;;;;;;50.28;7.68;;;5.70;99.90;;;4.08;97.93;99583.84;4846006;28;20097;-83
2022/01/30 03:41:46;;;;;;;57.75;8.10;;;5.70;99.90;;;4.17;97.33;99620.00;4901932;28;20042;-83
2022/01/30 03:44:12;;;;;;;52.50;9.15;;;5.80;99.90;;;4.29;96.06;99596.03;4866266;28;20103;-83
2022/01/30 03:46:38;;;;;;;45.63;7.35;;;5.90;99.90;;;4.33;95.26;99544.66;4860317;28;20035;-85
2022/01/30 03:49:11;;;;;;;47.25;7.50;;;5.90;99.90;;;4.40;94.61;99542.66;4871696;28;20034;-83
2022/01/30 03:51:37;;;;;;;38.42;7.82;;;5.90;99.90;;;4.40;94.19;99589.56;4868821;28;20238;-82
2022/01/30 03:54:03;;;;;;;56.60;7.53;;;6.00;99.90;;;4.44;94.18;99575.50;4849062;28;20507;-81
2022/01/30 03:56:29;;;;;;;48.10;7.00;;;6.00;99.90;;;4.52;93.33;99535.19;4853637;28;20031;-84
2022/01/30 03:59:04;;;;;;;53.80;6.80;;;6.10;99.90;;;4.55;92.76;99585.50;4896663;28;20030;-84
2022/01/30 04:01:30;;;;;;;40.15;8.07;;;6.10;99.90;;;4.56;91.96;99627.19;4867538;28;20037;-82
2022/01/30 04:03:57;;;;;;;44.00;7.97;;;6.10;99.90;;;4.59;91.49;99616.59;4904215;28;20128;-81
2022/01/30 04:06:32;;;;;;;53.00;9.45;;;6.20;99.90;;;4.61;91.51;99577.44;4903956;28;20018;-83
2022/01/30 04:08:59;;;;;;;57.95;11.50;;;6.20;99.90;;;4.65;90.86;99608.56;4922528;23;20050;-85
2022/01/30 04:11:25;;;;;;;62.83;9.25;;;6.20;99.90;;;4.61;91.47;99617.41;4913878;28;20045;-85
2022/01/30 04:14:00;;;;;;;51.17;7.38;;;;;;;4.64;91.07;99632.91;4911212;28;20041;-84
2022/01/30 04:16:27;;;;;;;30.25;6.63;;;;;;;4.60;91.65;99628.75;4901043;28;20034;-85
2022/01/30 04:18:53;;;;;;;56.92;8.52;;;6.20;99.90;;;4.63;91.58;99609.53;4893205;28;20045;-83
2022/01/30 04:21:28;;;;;;;56.40;7.68;;;6.20;99.90;;;4.65;91.56;99600.72;4911046;28;20038;-83
2022/01/30 04:23:54;;;;;;;39.03;6.68;;;6.20;99.90;;;4.66;91.40;99591.97;4901234;28;20503;-83
2022/01/30 04:26:20;;;;;;;53.25;8.38;;;6.20;99.90;;;4.65;91.92;99611.16;4870347;28;20453;-83
2022/01/30 04:28:46;;;;;;;67.55;7.55;;;6.20;99.90;;;4.65;92.65;99613.75;4891915;28;20093;-84
2022/01/30 04:31:22;;;;;;;48.38;7.57;;;6.20;99.90;;;4.56;92.99;99585.47;4892245;28;20023;-84
2022/01/30 04:33:48;;;;;;;44.80;7.13;;;6.20;99.90;;;4.53;92.80;99536.03;4932352;28;20524;-84
2022/01/30 04:36:29;;;;;;;37.33;7.18;;;;;;;4.62;91.89;99600.88;4893131;28;20106;-85
2022/01/30 05:04:44;;;;;;;56.50;9.05;;;6.20;99.90;;;4.67;90.01;99635.41;4948015;28;20033;-87
2022/01/30 05:09:46;;;;;;;45.97;11.23;;;6.30;99.90;;;4.76;88.64;99612.50;4980509;28;20113;-87
2022/01/30 05:12:14;;;;;;;38.15;7.25;;;6.30;99.90;;;4.75;89.25;99673.38;4922881;28;21954;-85
2022/01/30 05:14:49;;;;;;;155.98;12.82;;;6.40;99.90;;;4.79;87.81;99667.13;4972744;28;20041;-87
2022/01/30 05:17:16;;;;;;;49.17;9.38;;;;;;;4.79;88.20;99669.72;4928907;28;20030;-88
2022/01/30 05:19:42;;;;;;;60.00;9.32;;;6.40;99.90;;;4.77;88.32;99698.47;4905320;28;20040;-86
2022/01/30 05:22:14;;;;;;;40.03;8.38;;;6.30;99.90;;;4.80;88.20;99718.41;4885662;28;20038;-87
2022/01/30 05:24:43;;;;;;;50.00;9.05;;;6.40;99.90;;;4.82;87.47;99690.50;4912834;28;20084;-86
2022/01/30 05:27:21;;;;;;;51.03;9.85;;;;;;;4.84;87.04;99718.22;4901714;28;20099;-86
2022/01/30 05:29:47;;;;;;;51.60;8.27;;;6.40;99.90;;;4.83;87.32;99671.31;4916950;28;20026;-85
2022/01/30 05:32:13;;;;;;;42.05;7.60;;;6.40;99.90;;;4.86;87.33;99712.91;4896169;28;20034;-85
2022/01/30 05:34:46;;;;;;;54.58;8.90;;;;;;;4.84;87.61;99746.91;4918790;28;20040;-84
2022/01/30 05:37:28;;;;;;;52.05;9.82;;;6.40;99.90;;;4.84;87.12;99735.63;4892263;28;20083;-86
2022/01/30 05:39:55;;;;;;;51.83;10.05;;;6.40;99.90;;;4.84;87.48;99748.66;4905812;28;21016;-86
2022/01/30 05:42:24;;;;;;;102.38;9.93;;;6.40;99.90;;;4.83;87.20;99750.41;4993072;28;20041;-85
2022/01/30 05:45:08;;;;;;;32.88;5.15;;;6.40;99.90;;;4.81;87.36;99772.25;4912601;28;20521;-84
2022/01/30 05:47:44;;;;;;;44.85;6.93;;;6.40;99.90;;;4.84;86.55;99766.94;4898197;28;20033;-85
2022/01/30 05:50:16;;;;;;;;;;;6.40;99.90;;;4.84;85.69;99782.56;4933385;28;20037;-84
2022/01/30 05:53:15;;;;;;;43.85;8.20;;;6.40;99.90;;;4.82;85.44;99766.97;4932530;28;19967;-84
2022/01/30 05:55:51;;;;;;;42.17;6.78;;;6.40;99.90;;;4.84;85.44;99785.19;4905661;28;20064;-88
2022/01/30 05:58:19;;;;;;;43.35;7.05;;;6.40;99.90;;;4.77;85.91;99781.09;4899275;28;20044;-89
2022/01/30 06:00:46;;;;;;;48.50;7.40;;;;;;;4.75;85.87;99778.53;4885568;28;20141;-86
2022/01/30 06:03:21;;;;;;;51.83;9.32;;;;;;;4.73;85.86;99815.13;4918614;28;20034;-86
2022/01/30 06:05:49;;;;;;;47.13;7.95;;;;;;;4.72;86.27;99802.97;4884946;28;20025;-86
2022/01/30 06:11:17;;;;;;;38.15;8.00;;;6.30;99.90;;;4.75;86.04;99850.72;4953398;28;20060;-87
2022/01/30 06:13:46;;;;;;;45.15;8.90;;;;;;;4.77;85.50;99841.06;4920342;28;20107;-87
2022/01/30 06:16:12;;;;;;;35.17;7.47;;;6.30;99.90;;;4.72;85.89;99852.53;4903870;28;20034;-85
2022/01/30 06:18:38;;;;;;;47.85;8.25;;;6.30;99.90;;;4.71;86.29;99853.44;4901912;28;20025;-86
2022/01/30 06:21:13;;;;;;;42.30;6.45;;;6.30;99.90;;;4.70;86.90;99840.44;4910752;28;20118;-85
2022/01/30 06:23:41;;;;;;;42.83;7.53;;;6.30;99.90;;;4.70;86.55;99861.31;4917261;28;20039;-85
2022/01/30 06:26:31;;;;;;;42.78;6.53;;;;;;;4.66;86.66;99839.69;4915043;28;20140;-86
2022/01/30 06:29:00;;;;;;;44.20;8.02;;;6.20;99.90;;;4.63;86.95;99889.38;4904073;28;20117;-85
2022/01/30 06:31:27;;;;;;;47.85;7.97;;;6.20;99.90;;;4.62;86.95;99892.03;4917381;28;20048;-86
2022/01/30 06:34:02;;;;;;;43.45;8.00;;;6.20;99.90;;;4.61;87.17;99906.81;4932629;28;20084;-88
2022/01/30 06:36:28;;;;;;;28.50;6.65;;;6.20;99.90;;;4.61;86.86;99895.56;4903441;28;20029;-85
2022/01/30 06:38:54;;;;;;;45.60;8.10;;;6.20;99.90;;;4.63;86.58;99894.59;4962167;28;20113;-85
2022/01/30 06:41:26;;;;;;;42.22;8.15;;;6.20;99.90;;;4.59;87.10;99898.19;4929778;28;20113;-83
2022/01/30 06:43:53;;;;;;;29.30;5.35;;;6.20;99.90;;;4.59;86.85;99921.66;4885987;28;20494;-87
2022/01/30 06:46:19;;;;;;;41.88;7.97;;;6.20;99.90;;;4.57;86.73;99922.63;4896512;28;20036;-89
2022/01/30 06:48:45;;;;;;;45.92;7.63;;;6.10;99.90;;;4.54;87.33;99915.78;4899703;28;20037;-86
2022/01/30 06:51:17;;;;;;;38.38;6.13;;;;;;;4.57;86.58;99946.94;4917631;28;20068;-86
2022/01/30 06:53:46;;;;;;;46.95;9.30;;;6.10;99.90;;;4.58;86.39;99937.34;4909440;28;20034;-87
2022/01/30 06:56:12;;;;;;;36.03;6.60;;;6.10;99.90;;;4.56;86.24;99929.59;4883434;28;20026;-85
2022/01/30 06:58:38;;;;;;;51.13;6.72;;;6.20;99.90;;;4.56;86.44;99975.66;4908436;28;20030;-87
2022/01/30 07:01:56;;;;;;;42.30;7.78;;;;;;;4.54;86.25;99967.06;4893980;28;20530;-90
2022/01/30 07:04:22;;;;;;;37.97;7.50;;;6.10;99.90;;;4.51;86.15;99968.00;4861628;28;20071;-85
2022/01/30 07:06:48;;;;;;;45.20;7.00;;;;;;;4.49;86.06;99965.47;4894169;28;20074;-84
2022/01/30 07:09:14;;;;;;;37.28;5.82;;;6.10;99.90;;;4.46;86.58;99980.34;4940781;28;20037;-85
2022/01/30 07:11:40;;;;;;;32.17;6.53;;;6.10;99.90;;;4.42;86.77;99963.09;4915575;28;20029;-86
2022/01/30 07:14:14;;;;;;;41.25;8.00;;;6.00;99.90;;;4.36;87.64;99963.31;4901802;28;20036;-87
2022/01/30 07:16:40;;;;;;;39.45;6.47;;;5.90;99.90;;;4.35;87.63;100003.31;4924213;28;20037;-85
2022/01/30 07:19:07;;;;;;;54.05;8.00;;;5.90;99.90;;;4.39;87.34;100010.97;4885640;28;20044;-85
2022/01/30 07:21:46;;;;;;;43.97;7.25;;;5.90;99.90;;;4.34;87.43;100012.88;4896010;28;20030;-85
2022/01/30 07:24:13;;;;;;;49.25;8.75;;;5.90;99.90;;;4.43;86.85;99998.72;4949398;28;20051;-87
2022/01/30 07:27:19;;;;;;;39.20;6.70;;;6.00;99.90;;;4.50;86.20;100034.94;4961137;28;20129;-85
2022/01/30 07:29:46;;;;;;;41.00;7.77;;;6.00;99.90;;;4.55;86.30;100032.19;4924325;28;20113;-85
2022/01/30 07:32:12;;;;;;;46.10;7.18;;;6.10;99.90;;;4.59;86.16;100028.56;4890416;28;20045;-87
2022/01/30 07:34:38;;;;;;;52.78;8.88;;;6.10;99.90;;;4.60;86.01;100040.72;4903762;28;20119;-84
2022/01/30 07:37:14;;;;;;;49.53;8.80;;;6.10;99.90;;;4.67;85.61;100062.22;4935715;28;20045;-86
2022/01/30 07:39:40;;;;;;;;;;;6.10;99.90;;;4.62;85.19;100049.34;4921977;28;20064;-86
2022/01/30 07:42:06;;;;;;;40.05;6.00;;;6.20;99.90;;;4.68;85.18;100064.78;4905479;28;19925;-86
2022/01/30 07:44:40;;;;;;;27.02;6.40;;;6.20;99.90;;;4.73;85.17;100083.75;4908663;28;20030;-84
2022/01/30 07:47:07;;;;;;;39.65;5.82;;;;;;;4.83;84.73;100070.38;4924445;28;20391;-86
2022/01/30 07:49:33;;;;;;;35.00;6.72;;;6.20;99.90;;;4.77;84.47;100089.69;4935774;28;20102;-86
2022/01/30 07:52:08;;;;;;;42.83;6.95;;;6.20;99.90;;;4.65;83.76;100083.13;4967745;28;20026;-86
2022/01/30 07:54:35;;;;;;;42.93;7.03;;;;;;;4.61;83.92;100104.16;4909498;28;24932;-85
2022/01/30 07:57:02;;;;;;;45.00;8.27;;;6.10;99.90;;;4.59;83.90;100119.00;4922048;28;20305;-85
2022/01/30 07:59:38;;;;;;;35.30;6.97;;;;;;;4.56;84.20;100122.56;4887602;28;20080;-83
2022/01/30 08:02:04;;;;;;;;;;;6.10;99.90;;;4.65;84.04;100127.47;4924185;28;20713;-86
2022/01/30 08:04:39;;;;;;;51.10;7.75;;;;;;;4.73;83.07;100159.38;4890034;28;19918;-85
2022/01/30 08:07:08;;;;;;;45.73;6.40;;;6.20;99.90;;;4.73;82.93;100166.38;4923255;28;20035;-86
2022/01/30 08:09:34;;;;;;;27.48;5.80;;;6.20;99.90;;;4.78;82.78;100174.03;4891659;28;20112;-86
2022/01/30 08:12:10;;;;;;;39.83;8.23;;;6.20;99.90;;;4.67;82.36;100177.81;4929560;28;20115;-85
2022/01/30 08:14:49;;;;;;;36.58;6.53;;;;;;;4.68;82.58;100183.88;4913777;28;20113;-86
2022/01/30 08:17:21;;;;;;;33.50;6.53;;;6.10;99.90;;;4.74;82.01;100188.91;4919125;28;20151;-85
2022/01/30 08:19:53;;;;;;;46.10;7.90;;;6.20;99.90;;;4.89;81.82;100203.25;4893532;28;20391;-85
2022/01/30 08:22:19;;;;;;;68.85;8.45;;;;;;;4.95;81.11;100192.63;4881027;28;20112;-86
2022/01/30 08:24:46;;;;;;;42.58;8.57;;;6.30;99.90;;;4.98;80.46;100178.63;4917115;28;20039;-86
2022/01/30 08:27:20;;;;;;;38.10;7.90;;;;;;;5.04;80.54;100218.41;4945059;28;20034;-85
2022/01/30 08:29:47;;;;;;;38.50;6.28;;;;;;;5.02;80.14;100238.47;4906374;28;20087;-86
2022/01/30 08:32:13;;;;;;;35.70;7.57;;;6.40;99.90;;;5.05;79.82;100222.72;4943060;28;20760;-85
2022/01/30 08:34:47;;;;;;;38.28;6.57;;;6.40;99.90;;;5.07;79.27;100241.78;4893906;28;20035;-86
2022/01/30 08:37:13;;;;;;;33.65;5.20;;;;;;;5.13;79.41;100254.63;4892176;28;21039;-86
2022/01/30 08:39:39;;;;;;;28.92;5.55;;;6.50;99.90;;;5.16;79.76;100274.56;4903371;28;20037;-85
2022/01/30 08:42:16;;;;;;;36.92;5.57;;;;;;;5.24;79.40;100269.13;4923599;28;20402;-85
2022/01/30 08:44:43;;;;;;;28.40;4.97;;;6.50;99.90;;;5.23;79.13;100280.47;4898698;28;20430;-86
2022/01/30 08:47:09;;;;;;;43.45;7.55;;;6.40;99.90;;;5.12;78.55;100279.03;4918767;28;20123;-84
2022/01/30 08:49:45;;;;;;;36.75;6.93;;;6.50;99.90;;;5.16;78.22;100281.53;4908536;28;20068;-86
2022/01/30 08:52:16;;;;;;;37.58;6.70;;;6.50;99.90;;;5.13;78.10;100278.13;4875528;28;20055;-87
2022/01/30 08:54:50;;;;;;;24.50;5.57;;;6.50;99.90;;;5.14;78.14;100303.34;4879739;28;20105;-85
2022/01/30 08:57:18;;;;;;;23.33;4.55;;;6.50;99.90;;;5.17;77.99;100311.97;4914255;28;20538;-84
2022/01/30 08:59:51;;;;;;;56.13;7.78;;;6.50;99.90;;;5.10;77.80;100311.31;4940846;28;20025;-88
2022/01/30 09:02:19;;;;;;;40.20;5.35;;;;;;;5.22;78.02;100331.81;4918936;28;22362;-85
2022/01/30 09:04:45;;;;;;;33.28;6.80;;;6.60;99.90;;;5.22;78.28;100334.41;4943114;28;20493;-84
2022/01/30 09:07:19;;;;;;;45.47;7.78;;;;;;;5.28;77.59;100341.22;4920951;28;20033;-86
2022/01/30 09:09:46;;;;;;;30.08;5.80;;;6.70;99.90;;;5.46;77.71;100330.19;4897539;28;20043;-85
2022/01/30 09:12:13;;;;;;;41.28;6.55;;;6.80;99.90;;;5.66;77.07;100336.50;4894177;28;20561;-86
2022/01/30 09:15:05;;;;;;;33.75;5.80;;;7.00;99.90;;;5.69;76.50;100383.44;4946151;28;20506;-85
2022/01/30 09:17:32;;;;;;;26.48;4.75;;;;;;;5.62;76.80;100358.44;4958403;28;20051;-88
2022/01/30 09:20:04;;;;;;;34.80;6.15;;;7.00;99.90;;;5.63;76.47;100358.38;4890775;28;20030;-86
2022/01/30 09:22:30;;;;;;;34.20;6.25;;;;;;;5.61;76.94;100365.41;4878406;28;20530;-84
2022/01/30 09:24:57;;;;;;;34.03;6.18;;;6.90;99.90;;;5.57;76.82;100391.66;4918659;28;20025;-85
2022/01/30 09:27:23;;;;;;;41.08;7.15;;;6.90;99.90;;;5.45;76.33;100365.03;4899982;28;20055;-81
2022/01/30 09:29:49;;;;;;;23.02;4.93;;;6.90;99.90;;;5.44;77.59;100386.84;4943146;28;20432;-84
2022/01/30 09:32:21;;;;;;;35.30;5.40;;;;;;;5.34;77.57;100406.28;4911415;28;20107;-85
2022/01/30 09:34:50;;;;;;;40.30;7.28;;;6.60;99.90;;;5.24;77.36;100387.44;4949159;28;20452;-87
2022/01/30 09:37:17;;;;;;;29.77;6.80;;;6.70;99.90;;;5.22;77.68;100398.81;4945934;28;20041;-84
2022/01/30 09:39:52;;;;;;;36.60;6.82;;;6.70;99.90;;;5.19;77.92;100435.47;4913128;28;20038;-86
2022/01/30 09:42:19;;;;;;;29.60;5.22;;;;;;;5.15;78.21;100405.97;4899657;28;20096;-85
2022/01/30 09:44:45;;;;;;;27.70;7.45;;;6.60;99.90;;;5.17;77.25;100427.69;4910545;28;20058;-85
2022/01/30 09:47:21;;;;;;;45.50;7.25;;;;;;;5.21;77.55;100444.13;4920313;28;20039;-84
2022/01/30 09:49:59;;;;;;;29.73;4.90;;;6.70;99.90;;;5.28;77.52;100445.63;4868025;28;20522;-84
2022/01/30 09:52:26;;;;;;;40.80;8.30;;;;;;;5.34;77.07;100464.59;4919885;28;20065;-83
2022/01/30 09:54:52;;;;;;;34.78;5.50;;;6.80;99.90;;;5.41;77.22;100449.59;4925776;28;20136;-84
2022/01/30 09:57:18;;;;;;;35.25;6.40;;;6.80;99.90;;;5.34;77.06;100467.19;4941301;28;20386;-84
2022/01/30 09:59:56;;;;;;;45.22;7.10;;;;;;;5.29;77.08;100458.66;4925248;28;20053;-87
2022/01/30 10:02:26;;;;;;;39.88;7.93;;;6.70;99.90;;;5.29;77.08;100463.00;4958257;28;20048;-85
2022/01/30 10:04:56;;;;;;;24.92;5.72;;;6.70;99.90;;;5.39;77.07;100489.72;4927235;28;20029;-82
2022/01/30 10:07:26;;;;;;;36.20;6.30;;;6.80;99.90;;;5.35;77.76;100468.03;4897217;28;20061;-84
2022/01/30 10:10:16;;;;;;;31.67;4.82;;;6.80;99.90;;;5.43;77.34;100507.00;4916496;28;20042;-86
2022/01/30 10:13:12;;;;;;;37.10;5.90;;;6.80;99.90;;;5.38;77.54;100483.63;4894893;28;20065;-83
2022/01/30 10:15:57;;;;;;;36.15;6.22;;;6.90;99.90;;;5.46;77.84;100518.19;4975727;28;20091;-83
2022/01/30 10:18:44;;;;;;;41.40;6.53;;;6.90;99.90;;;5.46;77.74;100544.31;4920291;28;21057;-84
2022/01/30 10:21:29;;;;;;;25.98;4.65;;;6.90;99.90;;;5.53;77.42;100530.19;4952596;28;20446;-85
2022/01/30 10:23:54;;;;;;;37.63;6.40;;;6.90;99.90;;;5.53;76.80;100529.34;4891301;28;20061;-84
2022/01/30 10:26:32;;;;;;;45.53;7.50;;;7.00;99.90;;;5.59;76.74;100528.28;4896724;28;20041;-83
2022/01/30 10:29:28;;;;;;;26.52;6.30;;;7.00;99.90;;;5.58;77.02;100530.06;4940158;28;20588;-85
2022/01/30 10:32:05;;;;;;;45.67;7.65;;;7.00;99.90;;;5.63;76.68;100540.38;4902598;28;20084;-81
2022/01/30 10:34:35;;;;;;;30.13;5.97;;;7.10;99.90;;;5.72;76.77;100564.47;4870057;28;20173;-84
2022/01/30 10:37:30;;;;;;;30.88;6.65;;;7.10;99.90;;;5.66;76.14;100559.44;4922878;28;20042;-85
2022/01/30 10:40:34;;;;;;;43.30;6.95;;;7.10;99.90;;;5.69;76.21;100563.72;4893343;28;20414;-84
2022/01/30 10:43:00;;;;;;;32.63;6.07;;;7.20;99.90;;;5.68;76.11;100573.31;4905977;28;20103;-81
2022/01/30 10:45:33;;;;;;;33.95;6.50;;;7.20;99.90;;;5.74;76.33;100569.63;4871026;28;20111;-83
2022/01/30 10:48:21;;;;;;;31.98;5.43;;;7.20;99.90;;;5.77;75.79;100595.69;4901081;28;20411;-81
2022/01/30 10:50:48;;;;;;;33.40;5.55;;;7.20;99.90;;;5.78;75.84;100604.38;4903063;28;20026;-84
2022/01/30 10:53:27;;;;;;;28.50;6.35;;;7.20;99.90;;;5.84;75.76;100606.81;4860069;28;20078;-82
2022/01/30 10:55:55;;;;;;;22.65;4.03;;;7.20;99.90;;;5.83;75.71;100599.88;4921495;28;20044;-85
2022/01/30 10:58:32;;;;;;;38.70;6.18;;;7.30;99.90;;;5.84;75.35;100606.81;4904905;28;20677;-83
2022/01/30 11:00:59;;;;;;;;;;;7.30;99.90;;;5.81;75.73;100615.63;4923385;28;20093;-83
2022/01/30 11:03:53;;;;;;;30.33;6.18;;;7.30;99.90;;;5.80;75.64;100613.03;4937414;28;19929;-84
2022/01/30 11:06:29;;;;;;;24.25;4.43;;;;;;;5.79;75.55;100638.31;4901540;28;20120;-85
2022/01/30 11:09:19;;;;;;;36.78;4.95;;;7.20;99.90;;;5.76;75.25;100638.38;4882274;28;20046;-85
2022/01/30 11:12:14;;;;;;;37.67;7.03;;;;;;;5.79;75.63;100630.47;4862076;28;20027;-84
2022/01/30 11:15:21;;;;;;;32.20;6.80;;;7.20;99.90;;;5.77;75.19;100632.28;4938292;28;20067;-84
2022/01/30 11:18:04;;;;;;;30.60;4.57;;;7.20;99.90;;;5.79;75.66;100659.22;4925227;28;20108;-85
2022/01/30 11:20:57;;;;;;;34.30;5.95;;;;;;;5.83;75.69;100668.69;4918329;28;20060;-83
2022/01/30 11:23:34;;;;;;;35.38;6.65;;;7.30;99.90;;;5.85;75.68;100679.97;4894696;28;20030;-84
2022/01/30 11:26:01;;;;;;;27.10;5.10;;;;;;;5.86;75.49;100676.44;4941231;28;20026;-83
2022/01/30 11:28:27;;;;;;;37.28;5.80;;;;;;;5.85;75.67;100669.50;4921615;28;20026;-84
2022/01/30 11:31:19;;;;;;;29.92;5.22;;;7.30;99.90;;;5.88;75.85;100679.00;4863946;28;20040;-85
2022/01/30 11:34:01;;;;;;;31.70;6.00;;;;;;;5.81;75.55;100672.22;4916234;28;20044;-83
2022/01/30 11:36:41;;;;;;;39.80;5.32;;;7.30;99.90;;;5.83;75.61;100667.81;4904770;28;20034;-84
2022/01/30 11:39:20;;;;;;;27.52;5.35;;;7.30;99.90;;;5.80;75.17;100673.97;4874023;28;20036;-83
2022/01/30 11:45:27;;;;;;;32.20;5.75;;;7.30;99.90;;;5.87;76.01;100678.13;4890641;28;20031;-85
2022/01/30 11:48:21;;;;;;;26.35;4.57;;;6.60;99.90;;;5.83;74.97;100707.00;4925906;28;20081;-85
2022/01/30 11:51:02;;;;;;;23.92;4.47;;;7.30;99.90;;;5.86;75.37;100699.09;4887364;28;20034;-83
2022/01/30 11:53:29;;;;;;;20.65;3.70;;;7.30;99.90;;;5.88;76.14;100697.31;4895396;28;20749;-85
2022/01/30 11:56:09;;;;;;;31.02;5.45;;;7.30;99.90;;;5.91;76.59;100707.66;4907252;28;20029;-81
2022/01/30 11:58:57;;;;;;;29.30;5.18;;;7.40;99.90;;;5.85;75.42;100716.53;4896149;23;20048;-84
2022/01/30 12:01:26;;;;;;;29.10;5.85;;;7.40;99.90;;;5.82;75.42;100744.50;4920649;28;20042;-84
2022/01/30 12:03:54;;;;;;;34.80;4.68;;;;;;;5.85;75.98;100732.22;4919250;28;20050;-86
2022/01/30 12:06:33;;;;;;;28.73;5.50;;;7.30;99.90;;;5.86;75.98;100744.38;4915253;28;20456;-85
2022/01/30 12:09:29;;;;;;;36.08;5.72;;;7.30;99.90;;;5.85;75.98;100736.56;4888792;28;20069;-82
2022/01/30 12:12:08;;;;;;;33.63;5.30;;;7.30;99.90;;;5.82;76.09;100739.28;4872377;28;20023;-83
2022/01/30 12:14:47;;;;;;;24.33;4.78;;;7.30;99.90;;;5.75;75.20;100760.34;4872053;28;20030;-84
2022/01/30 12:17:41;;;;;;;26.55;5.43;;;7.30;99.90;;;5.83;75.67;100768.00;4895683;28;20432;-84